Time;durP1;ratioP1;P1;durP2;ratioP2;P2;SDS_P1;SDS_P2;PMS_P1;PMS_P2;Temp;Humidity;BMP_temperature;BMP_pressure;BME280_temperature;BME280_humidity;BME280_pressure;Samples;Min_cycle;Max_cycle;Signal;HPM_P1;HPM_P2
2023/10/14 00:01:34;;;;;;;6.30;4.60;;;17.00;99.90;;;;;;5051831;28;20511;-66
2023/10/14 00:04:04;;;;;;;3.50;2.53;;;16.90;99.90;;;;;;5054644;28;20498;-66
2023/10/14 00:06:38;;;;;;;1.90;1.50;;;16.70;99.90;;;;;;5054034;28;20469;-66
2023/10/14 00:09:11;;;;;;;1.43;1.30;;;16.50;99.90;;;;;;5051602;28;21001;-65
2023/10/14 00:11:43;;;;;;;1.27;1.17;;;16.10;99.90;;;;;;5053053;28;20531;-65
2023/10/14 00:14:18;;;;;;;1.17;1.00;;;15.90;99.90;;;;;;5053474;28;20485;-65
2023/10/14 00:16:50;;;;;;;1.63;1.00;;;15.70;99.90;;;;;;5051262;28;20484;-65
2023/10/14 00:19:19;;;;;;;2.33;1.33;;;15.50;99.90;;;;;;5054332;28;20477;-66
2023/10/14 00:21:49;;;;;;;2.70;1.43;;;15.40;99.90;;;;;;5055512;28;20542;-65
2023/10/14 00:24:26;;;;;;;1.40;1.30;;;15.30;99.90;;;;;;5051358;28;20606;-65
2023/10/14 00:26:54;;;;;;;2.40;1.30;;;15.20;99.90;;;;;;5053927;28;20469;-65
2023/10/14 00:29:25;;;;;;;2.20;1.10;;;15.20;99.90;;;;;;5052851;28;20557;-65
2023/10/14 00:31:53;;;;;;;2.10;1.10;;;15.10;99.90;;;;;;5053905;28;20990;-65
2023/10/14 00:34:22;;;;;;;3.03;1.13;;;15.10;99.90;;;;;;5050890;28;21068;-66
2023/10/14 00:36:53;;;;;;;1.40;0.87;;;15.10;99.90;;;;;;5055201;28;20849;-65
2023/10/14 00:39:25;;;;;;;2.00;1.00;;;15.00;99.90;;;;;;5053342;28;20465;-65
2023/10/14 00:41:54;;;;;;;1.50;1.03;;;15.00;99.90;;;;;;5054275;28;20493;-65
2023/10/14 00:44:25;;;;;;;2.60;1.10;;;14.90;99.90;;;;;;5051770;28;20485;-65
2023/10/14 00:46:53;;;;;;;1.57;1.10;;;14.90;99.90;;;;;;5053469;28;20561;-65
2023/10/14 00:49:23;;;;;;;1.77;1.00;;;14.80;99.90;;;;;;5054250;28;20472;-66
2023/10/14 00:51:58;;;;;;;1.53;0.90;;;14.70;99.90;;;;;;5053658;28;21214;-65
2023/10/14 00:54:40;;;;;;;2.80;0.90;;;14.60;99.90;;;;;;5062617;28;20493;-65
2023/10/14 00:57:20;;;;;;;2.33;1.20;;;14.60;99.90;;;;;;5052137;28;20475;-65
2023/10/14 00:59:50;;;;;;;5.00;1.63;;;14.50;99.90;;;;;;5052318;28;21221;-66
2023/10/14 01:02:26;;;;;;;2.70;1.07;;;14.60;99.90;;;;;;5055789;28;20509;-65
2023/10/14 01:04:55;;;;;;;3.33;1.13;;;14.60;99.90;;;;;;5049852;28;23601;-65
2023/10/14 01:07:25;;;;;;;3.20;0.97;;;14.50;99.90;;;;;;5052261;28;20473;-65
2023/10/14 01:09:53;;;;;;;3.03;1.20;;;14.40;99.90;;;;;;5045330;28;20838;-66
2023/10/14 01:12:23;;;;;;;4.90;1.50;;;14.40;99.90;;;;;;5053799;28;20464;-66
2023/10/14 01:14:54;;;;;;;3.70;1.40;;;14.40;99.90;;;;;;5043627;28;20485;-66
2023/10/14 01:17:29;;;;;;;2.87;1.40;;;14.40;99.90;;;;;;5055772;28;20475;-65
2023/10/14 01:20:06;;;;;;;3.07;1.20;;;14.30;99.90;;;;;;5049531;28;20465;-66
2023/10/14 01:22:37;;;;;;;2.70;1.70;;;14.30;99.90;;;;;;5054566;28;21112;-66
2023/10/14 01:25:11;;;;;;;3.60;1.50;;;14.30;99.90;;;;;;5051632;28;20927;-66
2023/10/14 01:27:42;;;;;;;4.30;1.40;;;14.30;99.90;;;;;;5044793;28;20469;-65
2023/10/14 01:30:18;;;;;;;1.83;1.20;;;14.30;99.90;;;;;;5054772;28;20523;-65
2023/10/14 01:32:49;;;;;;;4.30;1.50;;;14.30;99.90;;;;;;5049954;28;23064;-65
2023/10/14 01:35:26;;;;;;;2.20;1.10;;;14.30;99.90;;;;;;5053739;28;20857;-65
2023/10/14 01:37:58;;;;;;;4.63;1.60;;;14.30;99.90;;;;;;5051562;28;20549;-66
2023/10/14 01:40:29;;;;;;;2.80;1.00;;;14.30;99.90;;;;;;5056075;28;20466;-65
2023/10/14 01:43:05;;;;;;;1.97;1.10;;;14.30;99.90;;;;;;5048871;28;20493;-65
2023/10/14 01:45:42;;;;;;;2.40;1.20;;;14.30;99.90;;;;;;5054316;28;20513;-68
2023/10/14 01:48:14;;;;;;;5.13;1.60;;;14.40;99.90;;;;;;5054530;28;20476;-67
2023/10/14 01:50:46;;;;;;;3.07;1.20;;;14.40;99.90;;;;;;5049159;28;21232;-67
2023/10/14 01:53:21;;;;;;;2.43;1.23;;;14.30;99.90;;;;;;5053305;28;20476;-67
2023/10/14 01:55:50;;;;;;;1.90;1.17;;;14.30;99.90;;;;;;5049289;28;20489;-68
2023/10/14 01:58:29;;;;;;;2.70;1.30;;;14.30;99.90;;;;;;5047564;28;20469;-67
2023/10/14 02:01:04;;;;;;;3.83;1.30;;;14.30;99.90;;;;;;5054943;28;21167;-68
2023/10/14 02:03:40;;;;;;;6.50;1.90;;;14.30;99.90;;;;;;5058434;28;20497;-67
2023/10/14 02:06:13;;;;;;;2.70;1.00;;;14.30;99.90;;;;;;5055286;28;20875;-67
2023/10/14 02:08:42;;;;;;;2.57;1.30;;;14.30;99.90;;;;;;5053412;28;20473;-70
2023/10/14 02:11:10;;;;;;;4.33;1.20;;;14.30;99.90;;;;;;5050766;28;20476;-67
2023/10/14 02:13:38;;;;;;;4.00;1.13;;;14.20;99.90;;;;;;5056022;28;20488;-67
2023/10/14 02:16:10;;;;;;;2.17;1.20;;;14.20;99.90;;;;;;5054206;28;21603;-67
2023/10/14 02:18:39;;;;;;;4.47;1.20;;;14.20;99.90;;;;;;5055392;28;20473;-68
2023/10/14 02:21:11;;;;;;;3.40;1.37;;;14.10;99.90;;;;;;5050513;28;22006;-68
2023/10/14 02:23:48;;;;;;;4.00;1.40;;;14.10;99.90;;;;;;5049941;28;20580;-68
2023/10/14 02:26:22;;;;;;;2.43;0.93;;;14.00;99.90;;;;;;5048654;28;20522;-67
2023/10/14 02:28:52;;;;;;;3.77;1.10;;;14.00;99.90;;;;;;5047962;28;21989;-67
2023/10/14 02:31:29;;;;;;;4.20;1.30;;;14.00;99.90;;;;;;5048143;28;20466;-68
2023/10/14 02:34:04;;;;;;;3.67;1.00;;;13.90;99.90;;;;;;5048170;28;20490;-66
2023/10/14 02:36:35;;;;;;;3.50;1.10;;;13.90;99.90;;;;;;5049041;28;20918;-67
2023/10/14 02:39:12;;;;;;;3.30;1.20;;;13.90;99.90;;;;;;5050384;28;20473;-68
2023/10/14 02:41:43;;;;;;;2.07;1.10;;;13.80;99.90;;;;;;5053757;28;20479;-68
2023/10/14 02:44:27;;;;;;;3.30;1.00;;;13.80;99.90;;;;;;5049735;28;20497;-67
2023/10/14 02:47:01;;;;;;;4.63;1.63;;;13.80;99.90;;;;;;5054010;28;20469;-67
2023/10/14 02:49:35;;;;;;;6.10;2.03;;;13.80;99.90;;;;;;5051995;28;20466;-68
2023/10/14 02:52:08;;;;;;;3.40;1.27;;;13.70;99.90;;;;;;5053219;28;20562;-68
2023/10/14 02:54:41;;;;;;;5.30;1.87;;;13.50;99.90;;;;;;5047906;28;20505;-67
2023/10/14 02:57:23;;;;;;;1.90;0.97;;;13.40;99.90;;;;;;5054868;28;20476;-66
2023/10/14 02:59:55;;;;;;;3.67;1.33;;;13.40;99.90;;;;;;5051229;28;20497;-67
2023/10/14 03:02:26;;;;;;;2.67;1.00;;;13.30;99.90;;;;;;5053213;28;20462;-68
2023/10/14 03:05:08;;;;;;;3.77;1.13;;;13.30;99.90;;;;;;5054632;28;21251;-67
2023/10/14 03:07:47;;;;;;;1.90;1.17;;;13.20;99.90;;;;;;5051604;28;20469;-67
2023/10/14 03:10:28;;;;;;;2.33;0.90;;;13.10;99.90;;;;;;5047302;28;20606;-67
2023/10/14 03:12:57;;;;;;;2.53;1.00;;;13.10;99.90;;;;;;5047247;28;20463;-68
2023/10/14 03:15:28;;;;;;;3.47;1.33;;;13.00;99.90;;;;;;5044664;28;20577;-68
2023/10/14 03:17:58;;;;;;;2.90;1.20;;;13.00;99.90;;;;;;5048669;28;20477;-68
2023/10/14 03:20:39;;;;;;;3.33;1.43;;;12.90;99.90;;;;;;5049462;28;20516;-67
2023/10/14 03:23:13;;;;;;;2.87;1.00;;;12.90;99.90;;;;;;5048269;28;20489;-67
2023/10/14 03:25:42;;;;;;;4.70;1.47;;;12.90;99.90;;;;;;5052297;28;20485;-67
2023/10/14 03:28:14;;;;;;;5.73;1.67;;;13.00;99.90;;;;;;5047553;28;20474;-67
2023/10/14 03:30:46;;;;;;;2.67;1.50;;;13.00;99.90;;;;;;5049612;28;20488;-68
2023/10/14 03:33:19;;;;;;;4.13;1.27;;;13.00;99.90;;;;;;5048084;28;20469;-67
2023/10/14 03:35:57;;;;;;;4.87;1.50;;;13.00;99.90;;;;;;5048956;28;20517;-68
2023/10/14 03:38:39;;;;;;;3.53;1.40;;;13.00;99.90;;;;;;5054216;28;22491;-68
2023/10/14 03:41:17;;;;;;;4.20;1.13;;;13.00;99.90;;;;;;5051262;28;20493;-68
2023/10/14 03:43:50;;;;;;;4.63;1.43;;;12.90;99.90;;;;;;5042643;28;20578;-67
2023/10/14 03:46:23;;;;;;;4.10;1.40;;;12.90;99.90;;;;;;5047362;28;20485;-68
2023/10/14 03:48:54;;;;;;;3.63;1.70;;;12.80;99.90;;;;;;5045933;28;21069;-67
2023/10/14 03:51:25;;;;;;;3.27;1.40;;;12.80;99.90;;;;;;5048917;28;20567;-67
2023/10/14 03:53:54;;;;;;;4.67;1.47;;;12.80;99.90;;;;;;5045758;28;20482;-68
2023/10/14 03:56:25;;;;;;;6.63;1.70;;;12.70;99.90;;;;;;5042627;28;20489;-68
2023/10/14 03:58:57;;;;;;;6.87;2.00;;;12.70;99.90;;;;;;5045414;28;20508;-67
2023/10/14 04:01:29;;;;;;;2.87;1.30;;;12.70;99.90;;;;;;5043410;28;21145;-68
2023/10/14 04:03:58;;;;;;;3.30;1.70;;;12.70;99.90;;;;;;5047138;28;20530;-66
2023/10/14 04:06:26;;;;;;;4.70;1.67;;;12.70;99.90;;;;;;5049352;28;20502;-67
2023/10/14 04:08:54;;;;;;;4.10;1.63;;;12.70;99.90;;;;;;5046663;28;20484;-67
2023/10/14 04:11:28;;;;;;;4.47;1.40;;;12.60;99.90;;;;;;5049069;28;20475;-67
2023/10/14 04:14:02;;;;;;;6.37;1.67;;;12.60;99.90;;;;;;5049309;28;20485;-67
2023/10/14 04:16:48;;;;;;;5.17;1.40;;;12.60;99.90;;;;;;5048992;28;20487;-67
2023/10/14 04:19:27;;;;;;;4.27;1.57;;;12.60;99.90;;;;;;5049033;28;20476;-67
2023/10/14 04:21:59;;;;;;;4.80;1.60;;;12.50;99.90;;;;;;5051486;28;20550;-67
2023/10/14 04:24:45;;;;;;;3.00;1.50;;;12.40;99.90;;;;;;5048167;28;20493;-67
2023/10/14 04:27:22;;;;;;;3.40;1.50;;;12.40;99.90;;;;;;5045178;28;20461;-67
2023/10/14 04:29:57;;;;;;;4.63;1.53;;;12.40;99.90;;;;;;5049443;28;20465;-67
2023/10/14 04:32:27;;;;;;;4.77;1.40;;;12.40;99.90;;;;;;5050015;28;20560;-67
2023/10/14 04:34:57;;;;;;;3.17;1.50;;;12.40;99.90;;;;;;5045528;28;21564;-67
2023/10/14 04:37:36;;;;;;;5.00;1.73;;;12.30;99.90;;;;;;5047510;28;20551;-67
2023/10/14 04:40:15;;;;;;;4.60;1.90;;;12.30;99.90;;;;;;5045340;28;20469;-67
2023/10/14 04:42:46;;;;;;;4.40;1.60;;;12.20;99.90;;;;;;5044297;28;20505;-68
2023/10/14 04:45:16;;;;;;;4.10;2.20;;;12.20;99.90;;;;;;5049967;28;20492;-67
2023/10/14 04:47:47;;;;;;;6.77;2.03;;;12.20;99.90;;;;;;5053154;28;21005;-68
2023/10/14 04:50:21;;;;;;;2.17;1.57;;;12.20;99.90;;;;;;5054446;28;20473;-67
2023/10/14 04:52:49;;;;;;;4.10;1.60;;;12.20;99.90;;;;;;5052817;28;20470;-67
2023/10/14 04:55:28;;;;;;;4.97;2.10;;;12.10;99.90;;;;;;5058993;28;20493;-67
2023/10/14 04:58:11;;;;;;;4.20;1.70;;;12.10;99.90;;;;;;5054302;28;20966;-68
2023/10/14 05:00:45;;;;;;;3.97;1.67;;;12.20;99.90;;;;;;5050045;28;20480;-69
2023/10/14 05:03:14;;;;;;;6.13;1.80;;;12.20;99.90;;;;;;5052407;28;20461;-68
2023/10/14 05:05:49;;;;;;;4.23;2.17;;;12.20;99.90;;;;;;5051974;28;20583;-69
2023/10/14 05:08:21;;;;;;;3.13;1.50;;;12.10;99.90;;;;;;5052075;28;20470;-68
2023/10/14 05:10:51;;;;;;;4.73;1.73;;;12.10;99.90;;;;;;5048436;28;20474;-67
2023/10/14 05:13:31;;;;;;;4.43;1.67;;;12.10;99.90;;;;;;5049876;28;21513;-67
2023/10/14 05:16:15;;;;;;;3.37;1.80;;;12.10;99.90;;;;;;5046781;28;21946;-67
2023/10/14 05:19:00;;;;;;;4.60;1.60;;;12.10;99.90;;;;;;5046588;28;20470;-67
2023/10/14 05:21:42;;;;;;;5.80;1.70;;;12.20;99.90;;;;;;5048968;28;21053;-67
2023/10/14 05:24:13;;;;;;;5.43;1.93;;;12.20;99.90;;;;;;5058243;28;20638;-66
2023/10/14 05:26:46;;;;;;;5.27;1.70;;;12.10;99.90;;;;;;5053247;28;20574;-67
2023/10/14 05:29:17;;;;;;;3.20;1.90;;;12.10;99.90;;;;;;5049494;28;20503;-67
2023/10/14 05:31:46;;;;;;;4.43;1.67;;;12.10;99.90;;;;;;5050804;28;20481;-66
2023/10/14 05:34:15;;;;;;;7.73;1.90;;;12.20;99.90;;;;;;5059868;28;21727;-66
2023/10/14 05:36:44;;;;;;;8.63;2.33;;;12.10;99.90;;;;;;5059923;28;21306;-66
2023/10/14 05:39:12;;;;;;;3.70;1.67;;;12.10;99.90;;;;;;5063387;28;20471;-66
2023/10/14 05:41:40;;;;;;;3.43;1.43;;;12.10;99.90;;;;;;5062100;28;20492;-67
2023/10/14 05:44:10;;;;;;;6.30;1.97;;;12.10;99.90;;;;;;5056932;28;20489;-66
2023/10/14 05:46:41;;;;;;;5.17;1.50;;;12.00;99.90;;;;;;5061803;28;20493;-66
2023/10/14 05:49:10;;;;;;;9.83;1.90;;;12.00;99.90;;;;;;5060480;28;21141;-66
2023/10/14 05:51:39;;;;;;;4.47;1.83;;;11.90;99.90;;;;;;5061855;28;20473;-67
2023/10/14 05:54:08;;;;;;;3.30;1.77;;;11.90;99.90;;;;;;5061310;28;20836;-66
2023/10/14 05:56:39;;;;;;;9.77;2.20;;;11.90;99.90;;;;;;5061785;28;20480;-66
2023/10/14 05:59:07;;;;;;;3.30;1.70;;;11.90;99.90;;;;;;5060139;28;20551;-66
2023/10/14 06:01:36;;;;;;;6.53;1.90;;;11.80;99.90;;;;;;5058071;28;21261;-67
2023/10/14 06:04:10;;;;;;;6.53;1.50;;;11.80;99.90;;;;;;5056201;28;20635;-67
2023/10/14 06:06:40;;;;;;;4.83;1.50;;;11.80;99.90;;;;;;5040624;28;21283;-67
2023/10/14 06:09:09;;;;;;;5.70;1.80;;;11.80;99.90;;;;;;5047565;28;20470;-66
2023/10/14 06:11:37;;;;;;;6.17;1.67;;;11.80;99.90;;;;;;5058719;28;20477;-66
2023/10/14 06:14:06;;;;;;;3.17;2.00;;;11.80;99.90;;;;;;5055986;28;20566;-68
2023/10/14 06:16:34;;;;;;;2.70;1.57;;;11.80;99.90;;;;;;5056176;28;20495;-66
2023/10/14 06:19:04;;;;;;;6.13;2.43;;;11.80;99.90;;;;;;5056220;28;20505;-66
2023/10/14 06:21:34;;;;;;;4.33;1.80;;;11.80;99.90;;;;;;5053163;28;20474;-67
2023/10/14 06:24:04;;;;;;;4.83;2.03;;;11.80;99.90;;;;;;5045790;28;20698;-66
2023/10/14 06:26:34;;;;;;;3.23;2.00;;;11.80;99.90;;;;;;5053679;28;20489;-66
2023/10/14 06:29:02;;;;;;;8.73;2.27;;;11.70;99.90;;;;;;5047865;28;20947;-68
2023/10/14 06:31:30;;;;;;;4.80;1.90;;;11.70;99.90;;;;;;5050813;28;20500;-69
2023/10/14 06:33:59;;;;;;;9.77;2.10;;;11.70;99.90;;;;;;5050078;28;20508;-66
2023/10/14 06:36:27;;;;;;;7.63;1.73;;;11.70;99.90;;;;;;5057360;28;20474;-69
2023/10/14 06:39:12;;;;;;;5.50;2.20;;;11.70;99.90;;;;;;5045769;28;20560;-69
2023/10/14 06:41:43;;;;;;;4.13;1.77;;;11.80;99.90;;;;;;5054716;28;20485;-68
2023/10/14 06:44:15;;;;;;;6.90;2.23;;;11.80;99.90;;;;;;5049260;28;20535;-68
2023/10/14 06:46:44;;;;;;;6.03;2.27;;;11.70;99.90;;;;;;5050577;28;20489;-69
2023/10/14 06:49:14;;;;;;;6.47;2.30;;;11.70;99.90;;;;;;5051746;28;20473;-68
2023/10/14 06:51:43;;;;;;;12.60;2.40;;;11.70;99.90;;;;;;5047792;28;20527;-66
2023/10/14 06:54:14;;;;;;;6.57;1.87;;;11.70;99.90;;;;;;5047131;28;20579;-66
2023/10/14 06:56:44;;;;;;;7.10;2.00;;;11.80;99.90;;;;;;5053878;28;21108;-66
2023/10/14 06:59:13;;;;;;;4.87;2.00;;;11.90;99.90;;;;;;5047730;28;20496;-64
2023/10/14 07:01:41;;;;;;;5.90;1.93;;;11.90;99.90;;;;;;5051806;28;21149;-67
2023/10/14 07:04:12;;;;;;;9.87;2.30;;;11.90;99.90;;;;;;5048522;28;20490;-66
2023/10/14 07:06:42;;;;;;;6.57;1.80;;;11.90;99.90;;;;;;5047087;28;21157;-67
2023/10/14 07:09:17;;;;;;;5.30;1.80;;;11.80;99.90;;;;;;5051340;28;20477;-66
2023/10/14 07:11:47;;;;;;;5.83;1.63;;;11.80;99.90;;;;;;5054609;28;20474;-65
2023/10/14 07:14:18;;;;;;;4.87;1.57;;;11.80;99.90;;;;;;5047301;28;20628;-66
2023/10/14 07:16:46;;;;;;;7.80;2.10;;;11.80;99.90;;;;;;5047985;28;20505;-66
2023/10/14 07:19:14;;;;;;;4.60;2.07;;;11.90;99.90;;;;;;5044261;28;20478;-68
2023/10/14 07:21:42;;;;;;;5.73;1.80;;;12.00;99.90;;;;;;5032447;28;20849;-68
2023/10/14 07:24:14;;;;;;;6.33;1.97;;;12.00;99.90;;;;;;5044815;28;20956;-67
2023/10/14 07:26:43;;;;;;;6.30;1.80;;;12.00;99.90;;;;;;5048937;28;21845;-67
2023/10/14 07:29:12;;;;;;;7.50;2.23;;;12.00;99.90;;;;;;5048547;28;20484;-68
2023/10/14 07:31:41;;;;;;;4.37;1.57;;;11.90;99.90;;;;;;5050968;28;20986;-68
2023/10/14 07:34:10;;;;;;;3.80;2.00;;;11.90;99.90;;;;;;5041212;28;21240;-68
2023/10/14 07:36:38;;;;;;;5.40;1.60;;;11.90;99.90;;;;;;5043014;28;22011;-67
2023/10/14 07:39:27;;;;;;;4.63;1.70;;;11.90;99.90;;;;;;5042946;28;20568;-68
2023/10/14 07:41:55;;;;;;;2.90;1.60;;;12.00;99.90;;;;;;5048291;28;20485;-68
2023/10/14 07:44:25;;;;;;;6.73;1.90;;;12.00;99.90;;;;;;5046464;28;21484;-68
2023/10/14 07:46:54;;;;;;;5.73;2.90;;;12.00;99.90;;;;;;5041293;28;20576;-67
2023/10/14 07:49:22;;;;;;;6.27;1.80;;;12.00;99.90;;;;;;5045663;28;20481;-68
2023/10/14 07:51:52;;;;;;;7.47;2.20;;;12.00;99.90;;;;;;5048616;28;20847;-68
2023/10/14 07:54:21;;;;;;;5.70;2.07;;;12.10;99.90;;;;;;5055835;28;20982;-67
2023/10/14 07:56:49;;;;;;;7.50;2.30;;;12.10;99.90;;;;;;5046054;28;20472;-68
2023/10/14 07:59:19;;;;;;;4.00;1.60;;;12.10;99.90;;;;;;5058105;28;20903;-67
2023/10/14 08:01:48;;;;;;;4.13;1.70;;;12.10;99.90;;;;;;5055707;28;20890;-67
2023/10/14 08:04:18;;;;;;;5.17;2.03;;;12.20;99.90;;;;;;5055053;28;20493;-66
2023/10/14 08:06:46;;;;;;;6.83;2.80;;;12.20;99.90;;;;;;5058461;28;20493;-68
2023/10/14 08:09:23;;;;;;;6.27;1.80;;;12.20;99.90;;;;;;5038140;28;20478;-67
2023/10/14 08:11:53;;;;;;;6.60;1.90;;;12.20;99.90;;;;;;5048676;28;20469;-66
2023/10/14 08:14:21;;;;;;;4.20;2.20;;;12.30;99.90;;;;;;5039203;28;20489;-66
2023/10/14 08:16:50;;;;;;;7.57;1.87;;;12.40;99.90;;;;;;5040204;28;20883;-67
2023/10/14 08:19:21;;;;;;;9.27;2.33;;;12.40;99.90;;;;;;5047264;28;20470;-67
2023/10/14 08:21:51;;;;;;;5.33;2.30;;;12.40;99.90;;;;;;5035011;28;20474;-66
2023/10/14 08:24:20;;;;;;;9.23;2.30;;;12.50;99.90;;;;;;5023521;28;21066;-62
2023/10/14 08:26:49;;;;;;;4.20;1.73;;;12.60;99.90;;;;;;5053491;28;20493;-64
2023/10/14 08:29:20;;;;;;;4.90;2.30;;;12.60;99.90;;;;;;5054558;28;20556;-63
2023/10/14 08:31:53;;;;;;;6.37;2.23;;;12.70;99.90;;;;;;5054597;28;20493;-67
2023/10/14 08:34:23;;;;;;;6.30;1.80;;;12.80;99.90;;;;;;5041382;28;20523;-62
2023/10/14 08:36:51;;;;;;;4.63;1.80;;;12.70;99.90;;;;;;5054122;28;20563;-65
2023/10/14 08:39:23;;;;;;;4.97;1.30;;;12.60;99.90;;;;;;5051221;28;20481;-65
2023/10/14 08:41:56;;;;;;;2.67;1.10;;;12.50;99.90;;;;;;5042723;28;20791;-67
2023/10/14 08:44:31;;;;;;;5.10;1.73;;;12.40;99.90;;;;;;5053127;28;20489;-66
2023/10/14 08:47:01;;;;;;;4.53;1.60;;;12.40;99.90;;;;;;5041325;28;20908;-68
2023/10/14 08:49:34;;;;;;;3.80;1.80;;;12.30;99.90;;;;;;5040675;28;20480;-70
2023/10/14 08:52:09;;;;;;;6.20;1.37;;;12.30;99.90;;;;;;5032540;28;20741;-67
2023/10/14 08:54:37;;;;;;;5.13;1.73;;;12.30;99.90;;;;;;5036884;28;20484;-67
2023/10/14 08:57:07;;;;;;;2.83;1.20;;;12.40;99.90;;;;;;5039134;28;20586;-67
2023/10/14 08:59:35;;;;;;;5.70;1.90;;;12.40;99.90;;;;;;5039572;28;20905;-67
2023/10/14 09:02:05;;;;;;;10.77;1.83;;;12.40;99.90;;;;;;5033395;28;21034;-69
2023/10/14 09:04:35;;;;;;;3.60;1.63;;;12.40;99.90;;;;;;5045590;28;20493;-68
2023/10/14 09:07:03;;;;;;;6.97;2.17;;;12.40;99.90;;;;;;5029128;28;20844;-69
2023/10/14 09:09:32;;;;;;;5.03;2.00;;;12.40;99.90;;;;;;5029510;28;20477;-69
2023/10/14 09:12:10;;;;;;;5.53;1.90;;;12.50;99.90;;;;;;5026912;28;20956;-65
2023/10/14 09:14:39;;;;;;;6.60;1.90;;;12.60;99.90;;;;;;5035632;28;20489;-64
2023/10/14 09:17:09;;;;;;;3.90;1.63;;;12.80;99.90;;;;;;5034389;28;20897;-65
2023/10/14 09:19:46;;;;;;;7.87;1.97;;;12.90;99.90;;;;;;5045684;28;20473;-65
2023/10/14 09:22:23;;;;;;;5.30;1.40;;;13.00;99.90;;;;;;5043393;28;20479;-65
2023/10/14 09:24:52;;;;;;;6.80;1.70;;;13.00;99.90;;;;;;5035762;28;20876;-67
2023/10/14 09:27:20;;;;;;;6.53;1.90;;;13.20;99.90;;;;;;5046906;28;21070;-68
2023/10/14 09:29:49;;;;;;;5.97;1.93;;;13.30;99.90;;;;;;5045890;28;20814;-67
2023/10/14 09:32:18;;;;;;;4.90;1.60;;;13.30;99.90;;;;;;5048966;28;20474;-68
2023/10/14 09:34:46;;;;;;;7.33;2.03;;;13.40;99.90;;;;;;5045836;28;20493;-68
2023/10/14 09:37:17;;;;;;;4.13;1.33;;;13.40;99.90;;;;;;5050655;28;20492;-68
2023/10/14 09:39:49;;;;;;;5.50;1.33;;;13.50;99.90;;;;;;5040457;28;20477;-67
2023/10/14 09:42:18;;;;;;;3.67;1.70;;;13.50;99.90;;;;;;5037390;28;20477;-66
2023/10/14 09:44:48;;;;;;;6.27;2.10;;;13.50;99.90;;;;;;5032974;28;20606;-65
2023/10/14 09:47:34;;;;;;;7.80;2.23;;;13.60;99.90;;;;;;5030917;28;20489;-66
2023/10/14 09:50:05;;;;;;;8.60;1.73;;;13.50;99.90;;;;;;5036564;28;20481;-63
2023/10/14 09:52:36;;;;;;;3.50;1.70;;;13.50;99.90;;;;;;5054126;28;20457;-66
2023/10/14 09:55:13;;;;;;;4.30;1.33;;;13.50;99.90;;;;;;5049816;28;20481;-65
2023/10/14 09:57:44;;;;;;;4.93;1.50;;;13.60;99.90;;;;;;5061733;28;20476;-65
2023/10/14 10:00:16;;;;;;;5.37;1.43;;;13.60;99.90;;;;;;5064952;28;20469;-65
2023/10/14 10:02:50;;;;;;;6.37;1.60;;;13.70;99.90;;;;;;5064665;28;20474;-65
2023/10/14 10:05:26;;;;;;;6.27;2.20;;;13.80;99.90;;;;;;5059140;28;20575;-65
2023/10/14 10:08:07;;;;;;;4.10;1.57;;;13.90;99.90;;;;;;5062980;28;20527;-65
2023/10/14 10:10:36;;;;;;;4.17;1.30;;;14.20;99.90;;;;;;5061669;28;20505;-65
2023/10/14 10:13:05;;;;;;;2.97;1.00;;;14.20;99.90;;;;;;5062888;28;20545;-65
2023/10/14 10:15:35;;;;;;;3.13;0.90;;;13.80;99.90;;;;;;5063931;28;20529;-65
2023/10/14 10:18:12;;;;;;;4.50;1.40;;;13.40;99.90;;;;;;5064107;28;20522;-65
2023/10/14 10:20:49;;;;;;;3.30;1.07;;;12.90;99.90;;;;;;5066139;28;21014;-65
2023/10/14 10:23:17;;;;;;;1.93;1.20;;;12.50;99.90;;;;;;5066291;28;21535;-65
2023/10/14 10:25:53;;;;;;;2.50;1.10;;;12.20;99.90;;;;;;5057814;28;20486;-64
2023/10/14 10:28:37;;;;;;;2.63;0.70;;;12.00;99.90;;;;;;5060949;28;20492;-67
2023/10/14 10:31:09;;;;;;;1.43;0.70;;;11.70;99.90;;;;;;5066624;28;20466;-64
2023/10/14 10:33:54;;;;;;;2.40;0.70;;;11.70;99.90;;;;;;5066005;28;21081;-64
2023/10/14 10:36:25;;;;;;;1.53;0.80;;;11.70;99.90;;;;;;5065051;28;20480;-64
2023/10/14 10:38:55;;;;;;;1.40;0.67;;;11.80;99.90;;;;;;5065555;28;20489;-65
2023/10/14 10:41:25;;;;;;;2.77;0.70;;;11.90;99.90;;;;;;5062254;28;20513;-65
2023/10/14 10:44:00;;;;;;;1.67;0.40;;;11.90;99.90;;;;;;5060735;28;20507;-64
2023/10/14 10:46:30;;;;;;;2.50;0.83;;;12.00;99.90;;;;;;5065436;28;20457;-65
2023/10/14 10:48:59;;;;;;;3.00;0.80;;;12.10;99.90;;;;;;5061872;28;21009;-66
2023/10/14 10:51:31;;;;;;;2.70;0.90;;;12.40;99.90;;;;;;5066393;28;20920;-65
2023/10/14 10:54:00;;;;;;;2.13;0.80;;;12.60;99.90;;;;;;5065403;28;20494;-66
2023/10/14 10:56:30;;;;;;;2.13;0.80;;;12.80;99.90;;;;;;5066728;28;21096;-65
2023/10/14 10:58:59;;;;;;;1.87;1.00;;;12.80;99.90;;;;;;5061064;28;20498;-64
2023/10/14 11:01:31;;;;;;;1.97;0.90;;;12.90;99.90;;;;;;5066686;28;20465;-65
2023/10/14 11:04:08;;;;;;;2.53;0.83;;;13.00;99.90;;;;;;5065533;28;20489;-65
2023/10/14 11:06:36;;;;;;;3.20;1.70;;;13.10;99.90;;;;;;5065324;28;20514;-65
2023/10/14 11:09:05;;;;;;;1.23;1.13;;;13.20;99.90;;;;;;5063846;28;20990;-65
2023/10/14 11:11:36;;;;;;;2.30;0.90;;;13.30;99.90;;;;;;5063917;28;20473;-66
2023/10/14 11:14:16;;;;;;;1.50;0.60;;;13.40;99.90;;;;;;5065987;28;20997;-63
2023/10/14 11:16:45;;;;;;;3.17;1.00;;;13.60;99.90;;;;;;5065114;28;20472;-64
2023/10/14 11:19:15;;;;;;;2.80;1.10;;;13.90;99.90;;;;;;5066123;28;20478;-64
2023/10/14 11:21:43;;;;;;;2.40;1.23;;;14.10;99.90;;;;;;5066085;28;20588;-62
2023/10/14 11:24:11;;;;;;;1.90;0.80;;;14.20;99.90;;;;;;5064875;28;20498;-64
2023/10/14 11:26:39;;;;;;;2.20;1.27;;;14.40;99.90;;;;;;5066650;28;20497;-64
2023/10/14 11:29:08;;;;;;;2.63;1.27;;;14.40;99.90;;;;;;5057918;28;20481;-66
2023/10/14 11:31:39;;;;;;;2.70;1.07;;;14.30;99.90;;;;;;5062060;28;20550;-67
2023/10/14 11:34:07;;;;;;;3.00;1.27;;;14.10;99.90;;;;;;5056028;28;20544;-66
2023/10/14 11:36:42;;;;;;;1.60;0.70;;;13.70;99.90;;;;;;5058376;28;20556;-66
2023/10/14 11:39:14;;;;;;;3.10;0.90;;;13.20;99.90;;;;;;5059236;28;21006;-67
2023/10/14 11:41:42;;;;;;;3.90;1.10;;;12.90;99.90;;;;;;5065204;28;20470;-66
2023/10/14 11:44:10;;;;;;;3.80;0.97;;;12.50;99.90;;;;;;5061909;28;20608;-66
2023/10/14 11:46:41;;;;;;;2.87;0.90;;;12.20;99.90;;;;;;5067044;28;20508;-66
2023/10/14 11:49:11;;;;;;;2.27;1.30;;;12.00;99.90;;;;;;5058831;28;21017;-66
2023/10/14 11:51:42;;;;;;;4.20;1.10;;;12.20;99.90;;;;;;5053627;28;20476;-66
2023/10/14 11:54:11;;;;;;;2.23;1.07;;;12.90;99.90;;;;;;5053142;28;20593;-66
2023/10/14 11:56:40;;;;;;;2.83;1.07;;;14.30;99.90;;;;;;5063148;28;20469;-66
2023/10/14 11:59:08;;;;;;;2.53;1.00;;;15.00;99.90;;;;;;5064229;28;20891;-66
2023/10/14 12:01:36;;;;;;;3.60;0.90;;;15.60;99.90;;;;;;5063936;28;20508;-66
2023/10/14 12:04:05;;;;;;;4.37;1.20;;;17.10;99.90;;;;;;5056995;28;20488;-66
2023/10/14 12:06:34;;;;;;;1.90;1.00;;;19.30;99.90;;;;;;5055437;28;20500;-66
2023/10/14 12:09:06;;;;;;;1.90;0.90;;;21.70;99.90;;;;;;5059216;28;20489;-67
2023/10/14 12:11:41;;;;;;;1.00;0.80;;;23.70;99.90;;;;;;5065061;28;20465;-66
2023/10/14 12:14:11;;;;;;;2.30;1.03;;;24.70;99.90;;;;;;5064521;28;20573;-66
2023/10/14 12:16:40;;;;;;;2.33;1.40;;;24.80;95.30;;;;;;5065891;28;20469;-66
2023/10/14 12:19:11;;;;;;;1.90;0.83;;;24.60;94.20;;;;;;5064403;28;20469;-66
2023/10/14 12:21:41;;;;;;;3.37;1.47;;;26.10;92.80;;;;;;5064868;28;20473;-65
2023/10/14 12:24:11;;;;;;;3.13;1.23;;;28.00;64.30;;;;;;5062352;28;20526;-66
2023/10/14 12:26:43;;;;;;;2.23;1.03;;;28.90;55.70;;;;;;5061993;28;20553;-67
2023/10/14 12:29:12;;;;;;;1.90;1.10;;;28.80;55.10;;;;;;5064845;28;20493;-66
2023/10/14 12:31:44;;;;;;;3.90;1.70;;;27.60;54.90;;;;;;5063544;28;20473;-65
2023/10/14 12:34:14;;;;;;;1.40;0.70;;;28.00;53.50;;;;;;5060644;28;20576;-66
2023/10/14 12:36:42;;;;;;;3.10;1.43;;;29.10;49.60;;;;;;5065290;28;21347;-66
2023/10/14 12:39:21;;;;;;;3.03;1.20;;;30.00;46.50;;;;;;5063792;28;20496;-66
2023/10/14 12:41:53;;;;;;;3.60;1.60;;;30.40;43.70;;;;;;5063155;28;20480;-67
2023/10/14 12:44:21;;;;;;;2.80;1.40;;;30.60;41.00;;;;;;5061022;28;21067;-66
2023/10/14 12:46:49;;;;;;;3.33;1.40;;;30.60;40.40;;;;;;5063373;28;20493;-66
2023/10/14 12:49:19;;;;;;;1.50;1.07;;;31.10;40.90;;;;;;5056098;28;20489;-66
2023/10/14 12:51:48;;;;;;;2.13;1.10;;;31.40;40.00;;;;;;5063575;28;20962;-66
2023/10/14 12:54:18;;;;;;;2.20;1.10;;;31.20;37.70;;;;;;5062400;28;20489;-66
2023/10/14 12:56:50;;;;;;;2.30;1.20;;;30.00;38.10;;;;;;5062852;28;20465;-66
2023/10/14 12:59:18;;;;;;;2.30;0.93;;;29.80;39.00;;;;;;5065643;28;20468;-66
2023/10/14 13:01:47;;;;;;;2.30;1.20;;;28.50;38.20;;;;;;5060793;28;21031;-65
2023/10/14 13:04:19;;;;;;;2.17;1.10;;;26.10;40.90;;;;;;5063611;28;20488;-66
2023/10/14 13:06:49;;;;;;;4.33;1.10;;;23.80;62.30;;;;;;5066658;28;20492;-65
2023/10/14 13:09:20;;;;;;;4.80;1.30;;;22.40;95.40;;;;;;5065904;28;20536;-66
2023/10/14 13:11:47;;;;;;;2.50;1.20;;;22.30;99.90;;;;;;5061337;28;20848;-65